createdAt,value
2024-01-30T00:00:29.309Z,158.00
2024-01-30T00:01:01.219Z,158.00
2024-01-30T00:01:33.081Z,158.00
2024-01-30T00:02:05.117Z,158.00
2024-01-30T00:02:36.954Z,158.00
2024-01-30T00:03:08.740Z,158.00
2024-01-30T00:03:40.572Z,158.00
2024-01-30T00:04:12.764Z,158.00
2024-01-30T00:04:44.585Z,158.00
2024-01-30T00:05:16.471Z,158.33
2024-01-30T00:05:48.545Z,159.00
2024-01-30T00:06:24.956Z,159.00
2024-01-30T00:06:56.809Z,159.00
2024-01-30T00:07:28.674Z,159.00
2024-01-30T00:08:00.574Z,159.00
2024-01-30T00:08:32.482Z,159.00
2024-01-30T00:09:04.334Z,159.00
2024-01-30T00:09:38.709Z,160.00
2024-01-30T00:10:10.550Z,160.00
2024-01-30T00:10:42.361Z,160.00
2024-01-30T00:11:14.091Z,160.67
2024-01-30T00:11:45.863Z,161.00
2024-01-30T00:12:17.685Z,161.00
2024-01-30T00:12:49.458Z,161.67
2024-01-30T00:13:21.558Z,162.00
2024-01-30T00:13:53.696Z,162.00
2024-01-30T00:14:25.499Z,163.00
2024-01-30T00:14:57.426Z,163.00
2024-01-30T00:15:29.388Z,163.00
2024-01-30T00:16:01.231Z,164.00
2024-01-30T00:16:33.239Z,164.00
2024-01-30T00:17:05.586Z,163.67
2024-01-30T00:17:38.556Z,163.00
2024-01-30T00:18:10.403Z,163.33
2024-01-30T00:18:42.269Z,163.00
2024-01-30T00:19:14.126Z,163.00
2024-01-30T00:19:46.114Z,163.00
2024-01-30T00:20:17.974Z,162.33
2024-01-30T00:20:49.795Z,162.00
2024-01-30T00:21:21.855Z,161.67
2024-01-30T00:21:53.632Z,161.00
2024-01-30T00:22:25.476Z,161.00
2024-01-30T00:22:57.278Z,160.33
2024-01-30T00:23:29.044Z,160.00
2024-01-30T00:24:00.802Z,159.00
2024-01-30T00:24:32.610Z,159.00
2024-01-30T00:25:04.618Z,159.00
2024-01-30T00:25:36.415Z,158.00
2024-01-30T00:26:08.176Z,158.00
2024-01-30T00:26:39.935Z,158.00
2024-01-30T00:27:11.692Z,158.00
2024-01-30T00:27:43.520Z,157.67
2024-01-30T00:28:15.365Z,156.67
2024-01-30T00:28:47.158Z,156.00
2024-01-30T00:29:20.986Z,156.00
2024-01-30T00:29:52.801Z,156.00
2024-01-30T00:30:24.594Z,155.67
2024-01-30T00:30:56.396Z,155.00
2024-01-30T00:31:28.187Z,154.33
2024-01-30T00:31:59.968Z,154.00
2024-01-30T00:32:31.835Z,153.33
2024-01-30T00:33:03.716Z,152.67
2024-01-30T00:33:35.504Z,151.33
2024-01-30T00:34:07.344Z,150.00
2024-01-30T00:34:39.278Z,148.33
2024-01-30T00:35:12.227Z,147.33
2024-01-30T00:35:44.004Z,146.33
2024-01-30T00:36:15.772Z,145.33
2024-01-30T00:36:47.561Z,144.33
2024-01-30T00:37:19.436Z,144.00
2024-01-30T00:37:51.315Z,143.00
2024-01-30T00:38:23.298Z,142.00
2024-01-30T00:38:55.092Z,142.00
2024-01-30T00:39:27.086Z,142.00
2024-01-30T00:39:58.895Z,141.33
2024-01-30T00:40:31.271Z,141.00
2024-01-30T00:41:03.402Z,142.00
2024-01-30T00:41:36.182Z,141.00
2024-01-30T00:42:08.179Z,141.00
2024-01-30T00:42:39.961Z,141.00
2024-01-30T00:43:11.928Z,141.00
2024-01-30T00:43:43.731Z,141.00
2024-01-30T00:44:15.508Z,141.00
2024-01-30T00:44:47.565Z,141.00
2024-01-30T00:45:19.456Z,141.00
2024-01-30T00:45:53.269Z,141.00
2024-01-30T00:46:25.110Z,141.00
2024-01-30T00:46:56.922Z,141.00
2024-01-30T00:47:30.389Z,141.00
2024-01-30T00:48:02.177Z,141.00
2024-01-30T00:48:33.941Z,141.00
2024-01-30T00:49:05.906Z,141.00
2024-01-30T00:49:37.909Z,141.00
2024-01-30T00:50:10.236Z,141.00
2024-01-30T00:50:42.040Z,140.33
2024-01-30T00:51:13.795Z,140.00
2024-01-30T00:51:45.576Z,140.00
2024-01-30T00:52:17.419Z,140.00
2024-01-30T00:52:49.314Z,139.67
2024-01-30T00:53:21.137Z,139.00
2024-01-30T00:53:52.973Z,139.00
2024-01-30T00:54:24.767Z,139.00
2024-01-30T00:54:56.552Z,139.00
2024-01-30T00:55:28.346Z,139.00
2024-01-30T00:56:00.171Z,139.00
2024-01-30T00:56:32.134Z,139.00
2024-01-30T00:57:04.012Z,138.67
2024-01-30T00:57:35.796Z,138.00
2024-01-30T00:58:07.571Z,137.00
2024-01-30T00:58:39.352Z,136.67
2024-01-30T00:59:11.139Z,136.00
2024-01-30T00:59:42.922Z,136.00
2024-01-30T01:00:18.443Z,135.33
2024-01-30T01:00:50.421Z,135.00
2024-01-30T01:01:22.428Z,134.00
2024-01-30T01:01:54.391Z,133.67
2024-01-30T01:02:26.249Z,133.00
2024-01-30T01:02:58.156Z,132.67
2024-01-30T01:03:32.174Z,131.67
2024-01-30T01:04:04.061Z,130.67
2024-01-30T01:04:36.020Z,130.00
2024-01-30T01:05:07.909Z,129.00
2024-01-30T01:05:40.313Z,128.33
2024-01-30T01:06:12.333Z,127.67
2024-01-30T01:06:45.603Z,126.33
2024-01-30T01:07:17.699Z,125.00
2024-01-30T01:07:49.776Z,124.00
2024-01-30T01:08:21.690Z,123.33
2024-01-30T01:08:53.455Z,122.67
2024-01-30T01:09:25.205Z,122.33
2024-01-30T01:09:57.004Z,122.00
2024-01-30T01:10:29.429Z,121.33
2024-01-30T01:11:01.233Z,121.00
2024-01-30T01:11:33.008Z,121.00
2024-01-30T01:12:05.538Z,121.00
2024-01-30T01:12:37.392Z,121.00
2024-01-30T01:13:09.298Z,121.00
2024-01-30T01:13:41.261Z,121.00
2024-01-30T01:14:13.042Z,121.00
2024-01-30T01:14:44.878Z,121.00
2024-01-30T01:15:16.654Z,121.00
2024-01-30T01:15:48.442Z,121.00
2024-01-30T01:16:22.920Z,121.33
2024-01-30T01:16:54.913Z,122.00
2024-01-30T01:17:26.698Z,122.00
2024-01-30T01:17:58.512Z,122.00
2024-01-30T01:18:30.320Z,122.00
2024-01-30T01:19:02.433Z,122.00
2024-01-30T01:19:34.652Z,122.00
2024-01-30T01:20:07.568Z,123.00
2024-01-30T01:20:39.328Z,123.00
2024-01-30T01:21:11.095Z,123.00
2024-01-30T01:21:42.904Z,123.00
2024-01-30T01:22:14.716Z,123.33
2024-01-30T01:22:46.540Z,124.00
2024-01-30T01:23:18.323Z,124.00
2024-01-30T01:23:50.088Z,124.00
2024-01-30T01:24:22.141Z,124.00
2024-01-30T01:24:54.002Z,124.00
2024-01-30T01:25:26.007Z,124.00
2024-01-30T01:26:00.627Z,124.00
2024-01-30T01:26:32.979Z,124.00
2024-01-30T01:27:04.866Z,124.00
2024-01-30T01:27:41.636Z,124.00
2024-01-30T01:28:14.464Z,123.33
2024-01-30T01:28:46.598Z,123.67
2024-01-30T01:29:18.395Z,124.00
2024-01-30T01:29:50.255Z,124.00
2024-01-30T01:30:24.974Z,124.00
2024-01-30T01:31:00.556Z,124.00
2024-01-30T01:31:32.471Z,124.00
2024-01-30T01:32:04.433Z,124.00
2024-01-30T01:32:36.213Z,124.00
2024-01-30T01:33:08.245Z,124.00
2024-01-30T01:33:40.306Z,123.67
2024-01-30T01:34:12.968Z,120.33
2024-01-30T01:34:44.977Z,120.00
2024-01-30T01:35:16.880Z,119.33
2024-01-30T01:35:48.701Z,118.00
2024-01-30T01:36:20.469Z,118.67
2024-01-30T01:36:52.557Z,119.33
2024-01-30T01:37:27.845Z,120.67
2024-01-30T01:38:01.562Z,121.33
2024-01-30T01:38:33.352Z,122.00
2024-01-30T01:39:05.264Z,123.00
2024-01-30T01:39:37.034Z,124.00
2024-01-30T01:40:09.043Z,124.67
2024-01-30T01:40:41.119Z,126.00
2024-01-30T01:41:12.872Z,126.67
2024-01-30T01:41:44.689Z,127.00
2024-01-30T01:42:16.452Z,127.00
2024-01-30T01:42:52.246Z,127.67
2024-01-30T01:43:24.222Z,128.00
2024-01-30T01:43:56.028Z,128.00
2024-01-30T01:44:28.161Z,128.00
2024-01-30T01:44:59.922Z,128.00
2024-01-30T01:45:31.700Z,127.33
2024-01-30T01:46:03.736Z,127.00
2024-01-30T01:46:35.808Z,127.00
2024-01-30T01:47:07.991Z,127.00
2024-01-30T01:47:39.824Z,127.00
2024-01-30T01:48:12.304Z,127.00
2024-01-30T01:48:44.719Z,127.00
2024-01-30T01:49:16.881Z,126.00
2024-01-30T01:49:49.201Z,126.00
2024-01-30T01:50:23.318Z,126.00
2024-01-30T01:50:55.504Z,126.00
2024-01-30T01:51:29.077Z,126.00
2024-01-30T01:52:01.696Z,126.00
2024-01-30T01:52:33.720Z,125.00
2024-01-30T01:53:09.055Z,125.00
2024-01-30T01:53:40.829Z,125.00
2024-01-30T01:54:12.922Z,124.00
2024-01-30T01:54:44.839Z,123.33
2024-01-30T01:55:17.526Z,123.00
2024-01-30T01:55:49.656Z,123.00
2024-01-30T01:56:22.303Z,123.00
2024-01-30T01:56:54.333Z,123.00
2024-01-30T01:57:26.140Z,123.00
2024-01-30T01:57:58.144Z,123.00
2024-01-30T01:58:30.832Z,122.33
2024-01-30T01:59:06.789Z,122.00
2024-01-30T01:59:38.741Z,122.00
2024-01-30T02:00:11.802Z,122.00
2024-01-30T02:00:43.734Z,122.00
2024-01-30T02:01:15.896Z,122.00
2024-01-30T02:01:50.593Z,122.00
2024-01-30T02:02:24.997Z,122.00
2024-01-30T02:02:57.755Z,122.00
2024-01-30T02:03:29.871Z,122.00
2024-01-30T02:04:02.291Z,122.00
2024-01-30T02:04:34.231Z,122.00
2024-01-30T02:05:06.392Z,122.00
2024-01-30T02:05:38.345Z,122.00
2024-01-30T02:06:10.549Z,122.00
2024-01-30T02:06:42.608Z,122.00
2024-01-30T02:07:14.679Z,121.00
2024-01-30T02:07:46.579Z,120.67
2024-01-30T02:08:18.447Z,120.00
2024-01-30T02:08:50.228Z,120.00
2024-01-30T02:09:22.162Z,119.67
2024-01-30T02:09:53.969Z,119.00
2024-01-30T02:10:25.856Z,119.00
2024-01-30T02:10:57.703Z,119.00
2024-01-30T02:11:29.574Z,118.00
2024-01-30T02:12:01.649Z,118.00
2024-01-30T02:12:33.435Z,118.00
2024-01-30T02:13:06.045Z,118.00
2024-01-30T02:13:38.144Z,118.00
2024-01-30T02:14:09.897Z,118.00
2024-01-30T02:14:47.978Z,118.00
2024-01-30T02:15:19.804Z,118.00
2024-01-30T02:15:52.110Z,118.00
2024-01-30T02:16:23.946Z,117.00
2024-01-30T02:16:58.259Z,116.00
2024-01-30T02:17:30.089Z,116.00
2024-01-30T02:18:01.911Z,116.00
2024-01-30T02:18:33.713Z,116.00
2024-01-30T02:19:06.729Z,116.00
2024-01-30T02:19:38.926Z,116.00
2024-01-30T02:20:11.091Z,116.00
2024-01-30T02:20:43.254Z,116.00
2024-01-30T02:21:16.686Z,116.67
2024-01-30T02:21:48.534Z,117.00
2024-01-30T02:22:21.527Z,117.00
2024-01-30T02:22:55.596Z,117.00
2024-01-30T02:23:27.366Z,117.00
2024-01-30T02:24:01.064Z,117.00
2024-01-30T02:24:32.946Z,117.00
2024-01-30T02:25:04.892Z,117.00
2024-01-30T02:25:39.831Z,117.00
2024-01-30T02:26:13.139Z,117.00
2024-01-30T02:26:45.235Z,117.00
2024-01-30T02:27:16.983Z,117.00
2024-01-30T02:27:48.819Z,117.00
2024-01-30T02:28:21.391Z,117.67
2024-01-30T02:28:53.203Z,118.00
2024-01-30T02:29:25.015Z,118.00
2024-01-30T02:29:56.803Z,119.00
2024-01-30T02:30:28.576Z,119.00
2024-01-30T02:31:00.395Z,119.00
2024-01-30T02:31:32.223Z,118.33
2024-01-30T02:32:04.163Z,118.00
2024-01-30T02:32:35.956Z,118.00
2024-01-30T02:33:07.824Z,118.00
2024-01-30T02:33:39.659Z,118.00
2024-01-30T02:34:11.656Z,118.00
2024-01-30T02:34:43.997Z,118.00
2024-01-30T02:35:15.929Z,118.00
2024-01-30T02:35:47.756Z,117.00
2024-01-30T02:36:19.622Z,117.00
2024-01-30T02:36:51.455Z,117.00
2024-01-30T02:37:23.507Z,117.00
2024-01-30T02:37:55.346Z,117.00
2024-01-30T02:38:28.142Z,117.33
2024-01-30T02:39:00.044Z,118.00
2024-01-30T02:39:31.809Z,118.00
2024-01-30T02:40:03.995Z,118.00
2024-01-30T02:40:35.809Z,118.00
2024-01-30T02:41:07.596Z,118.00
2024-01-30T02:41:39.352Z,118.00
2024-01-30T02:42:11.111Z,118.00
2024-01-30T02:42:43.184Z,118.00
2024-01-30T02:43:15.176Z,118.00
2024-01-30T02:43:47.144Z,118.00
2024-01-30T02:44:19.036Z,118.00
2024-01-30T02:44:50.787Z,118.00
2024-01-30T02:45:22.541Z,118.00
2024-01-30T02:45:54.329Z,118.00
2024-01-30T02:46:26.179Z,118.33
2024-01-30T02:46:57.972Z,119.00
2024-01-30T02:47:29.845Z,119.33
2024-01-30T02:48:01.655Z,120.00
2024-01-30T02:48:33.556Z,121.33
2024-01-30T02:49:05.484Z,122.33
2024-01-30T02:49:37.393Z,123.67
2024-01-30T02:50:09.506Z,124.00
2024-01-30T02:50:41.371Z,124.67
2024-01-30T02:51:13.142Z,125.00
2024-01-30T02:51:44.999Z,125.00
2024-01-30T02:52:16.825Z,125.00
2024-01-30T02:52:48.610Z,125.00
2024-01-30T02:53:20.354Z,124.33
2024-01-30T02:53:52.102Z,124.00
2024-01-30T02:54:23.861Z,124.00
2024-01-30T02:54:55.732Z,124.00
2024-01-30T02:55:27.643Z,124.00
2024-01-30T02:55:59.408Z,124.00
2024-01-30T02:56:31.191Z,123.00
2024-01-30T02:57:03.029Z,123.00
2024-01-30T02:57:35.519Z,123.33
2024-01-30T02:58:07.327Z,124.00
2024-01-30T02:58:39.131Z,124.00
2024-01-30T02:59:10.983Z,124.00
2024-01-30T02:59:43.191Z,123.33
2024-01-30T03:00:15.557Z,123.00
2024-01-30T03:00:47.423Z,123.00
2024-01-30T03:01:19.470Z,118.00
2024-01-30T03:01:51.373Z,113.00
2024-01-30T03:02:23.265Z,114.00
2024-01-30T03:02:55.045Z,112.67
2024-01-30T03:03:26.824Z,111.00
2024-01-30T03:03:58.698Z,112.00
2024-01-30T03:04:31.529Z,112.67
2024-01-30T03:05:04.982Z,113.00
2024-01-30T03:05:36.962Z,112.33
2024-01-30T03:06:08.734Z,106.00
2024-01-30T03:06:40.609Z,99.33
2024-01-30T03:07:12.750Z,100.00
2024-01-30T03:07:44.716Z,103.00
2024-01-30T03:08:16.634Z,102.33
2024-01-30T03:08:48.464Z,98.00
2024-01-30T03:09:20.246Z,100.33
2024-01-30T03:09:52.119Z,102.00
2024-01-30T03:10:24.057Z,103.00
2024-01-30T03:10:55.833Z,104.33
2024-01-30T03:11:27.604Z,104.67
2024-01-30T03:11:59.413Z,102.00
2024-01-30T03:12:31.183Z,102.00
2024-01-30T03:13:03.041Z,111.67
2024-01-30T03:13:34.843Z,122.67
2024-01-30T03:14:06.644Z,120.33
2024-01-30T03:14:38.844Z,121.67
2024-01-30T03:15:11.203Z,119.00
2024-01-30T03:15:43.018Z,95.33
2024-01-30T03:16:17.724Z,94.33
2024-01-30T03:16:49.532Z,93.33
2024-01-30T03:17:21.289Z,95.67
2024-01-30T03:17:54.693Z,98.00
2024-01-30T03:18:26.602Z,99.67
2024-01-30T03:18:58.503Z,100.00
2024-01-30T03:19:30.512Z,100.00
2024-01-30T03:20:02.569Z,95.67
2024-01-30T03:20:34.965Z,95.33
2024-01-30T03:21:06.993Z,98.00
2024-01-30T03:21:39.005Z,99.67
2024-01-30T03:22:11.228Z,100.00
2024-01-30T03:22:43.260Z,99.33
2024-01-30T03:23:15.005Z,99.00
2024-01-30T03:23:46.785Z,100.00
2024-01-30T03:24:18.587Z,100.00
2024-01-30T03:24:50.389Z,100.00
2024-01-30T03:25:22.284Z,100.00
2024-01-30T03:25:54.084Z,99.33
2024-01-30T03:26:27.950Z,99.00
2024-01-30T03:26:59.715Z,99.67
2024-01-30T03:27:31.504Z,99.67
2024-01-30T03:28:03.380Z,95.33
2024-01-30T03:28:35.183Z,85.00
2024-01-30T03:29:07.062Z,82.67
2024-01-30T03:29:38.856Z,81.00
2024-01-30T03:30:10.733Z,78.67
2024-01-30T03:30:42.625Z,80.33
2024-01-30T03:31:15.893Z,80.67
2024-01-30T03:31:47.663Z,80.00
2024-01-30T03:32:19.414Z,81.33
2024-01-30T03:32:51.593Z,83.33
2024-01-30T03:33:23.484Z,84.00
2024-01-30T03:33:55.521Z,85.00
2024-01-30T03:34:27.945Z,85.67
2024-01-30T03:35:00.659Z,81.33
2024-01-30T03:35:32.743Z,76.00
2024-01-30T03:36:05.166Z,79.33
2024-01-30T03:36:36.914Z,81.33
2024-01-30T03:37:08.755Z,82.00
2024-01-30T03:37:40.563Z,81.00
2024-01-30T03:38:12.346Z,77.67
2024-01-30T03:38:44.161Z,78.00
2024-01-30T03:39:16.174Z,79.33
2024-01-30T03:39:47.958Z,79.67
2024-01-30T03:40:19.810Z,78.00
2024-01-30T03:40:51.637Z,74.67
2024-01-30T03:41:23.395Z,72.00
2024-01-30T03:41:55.237Z,73.00
2024-01-30T03:42:27.133Z,74.67
2024-01-30T03:42:59.319Z,76.00
2024-01-30T03:43:31.121Z,77.00
2024-01-30T03:44:03.065Z,77.00
2024-01-30T03:44:34.842Z,77.33
2024-01-30T03:45:06.862Z,78.00
2024-01-30T03:45:38.656Z,76.00
2024-01-30T03:46:10.518Z,74.00
2024-01-30T03:46:42.296Z,71.67
2024-01-30T03:47:14.053Z,65.00
2024-01-30T03:47:45.837Z,58.33
2024-01-30T03:48:17.609Z,57.33
2024-01-30T03:48:49.444Z,61.00
2024-01-30T03:49:22.391Z,63.67
2024-01-30T03:49:54.336Z,65.33
2024-01-30T03:50:26.199Z,66.00
2024-01-30T03:50:58.058Z,67.00
2024-01-30T03:51:29.820Z,67.33
2024-01-30T03:52:01.599Z,68.00
2024-01-30T03:52:33.426Z,68.33
2024-01-30T03:53:05.347Z,68.33
2024-01-30T03:53:37.116Z,67.33
2024-01-30T03:54:09.194Z,66.00
2024-01-30T03:54:41.047Z,66.00
2024-01-30T03:55:12.887Z,65.33
2024-01-30T03:55:44.912Z,63.00
2024-01-30T03:56:16.752Z,61.00
2024-01-30T03:56:48.624Z,60.00
2024-01-30T03:57:20.396Z,59.33
2024-01-30T03:57:52.179Z,58.67
2024-01-30T03:58:24.001Z,57.33
2024-01-30T03:58:56.875Z,55.33
2024-01-30T03:59:28.917Z,53.00
2024-01-30T04:00:02.798Z,53.00
2024-01-30T04:00:35.270Z,53.00
2024-01-30T04:01:07.358Z,53.00
2024-01-30T04:01:39.368Z,53.00
2024-01-30T04:02:12.438Z,52.00
2024-01-30T04:02:44.329Z,50.33
2024-01-30T04:03:19.390Z,49.67
2024-01-30T04:03:51.222Z,50.00
2024-01-30T04:04:23.232Z,50.00
2024-01-30T04:04:55.214Z,51.00
2024-01-30T04:05:27.101Z,51.00
2024-01-30T04:05:59.091Z,51.33
2024-01-30T04:06:30.904Z,50.67
2024-01-30T04:07:02.709Z,50.00
2024-01-30T04:07:34.510Z,49.33
2024-01-30T04:08:06.403Z,49.00
2024-01-30T04:08:38.438Z,49.67
2024-01-30T04:09:10.181Z,50.00
2024-01-30T04:09:42.008Z,50.00
2024-01-30T04:10:14.198Z,50.33
2024-01-30T04:10:45.990Z,51.00
2024-01-30T04:11:19.565Z,51.67
2024-01-30T04:11:51.334Z,52.67
2024-01-30T04:12:23.116Z,53.00
2024-01-30T04:12:55.622Z,53.00
2024-01-30T04:13:27.605Z,53.33
2024-01-30T04:13:59.491Z,54.00
2024-01-30T04:14:31.374Z,54.00
2024-01-30T04:15:04.626Z,54.00
2024-01-30T04:15:36.456Z,54.00
2024-01-30T04:16:08.277Z,54.00
2024-01-30T04:16:40.073Z,54.33
2024-01-30T04:17:11.869Z,55.00
2024-01-30T04:17:43.698Z,55.00
2024-01-30T04:18:15.501Z,55.33
2024-01-30T04:18:47.417Z,56.00
2024-01-30T04:19:19.330Z,56.67
2024-01-30T04:19:51.347Z,57.67
2024-01-30T04:20:23.197Z,58.00
2024-01-30T04:20:55.248Z,58.00
2024-01-30T04:21:27.000Z,58.00
2024-01-30T04:21:58.814Z,58.00
2024-01-30T04:22:30.996Z,58.00
2024-01-30T04:23:02.776Z,58.00
2024-01-30T04:23:34.597Z,59.00
2024-01-30T04:24:06.617Z,63.33
2024-01-30T04:24:38.446Z,71.67
2024-01-30T04:25:10.257Z,81.33
2024-01-30T04:25:42.050Z,87.33
2024-01-30T04:26:13.856Z,100.00
2024-01-30T04:26:45.620Z,104.33
2024-01-30T04:27:17.387Z,105.67
2024-01-30T04:27:49.270Z,109.00
2024-01-30T04:28:21.159Z,108.33
2024-01-30T04:28:53.188Z,103.67
2024-01-30T04:29:24.954Z,99.67
2024-01-30T04:29:56.744Z,103.33
2024-01-30T04:30:28.505Z,106.00
2024-01-30T04:31:00.333Z,101.67
2024-01-30T04:31:32.133Z,99.00
2024-01-30T04:32:03.993Z,97.00
2024-01-30T04:32:37.738Z,95.33
2024-01-30T04:33:09.675Z,94.33
2024-01-30T04:33:41.617Z,94.00
2024-01-30T04:34:13.492Z,93.00
2024-01-30T04:34:45.525Z,92.00
2024-01-30T04:35:17.545Z,92.33
2024-01-30T04:35:49.466Z,93.67
2024-01-30T04:36:21.238Z,94.00
2024-01-30T04:36:53.053Z,94.33
2024-01-30T04:37:24.978Z,96.67
2024-01-30T04:37:56.769Z,96.33
2024-01-30T04:38:28.537Z,95.67
2024-01-30T04:39:00.344Z,95.00
2024-01-30T04:39:33.956Z,94.33
2024-01-30T04:40:06.577Z,93.00
2024-01-30T04:40:38.479Z,89.00
2024-01-30T04:41:10.225Z,85.00
2024-01-30T04:41:41.985Z,81.33
2024-01-30T04:42:13.744Z,79.00
2024-01-30T04:42:45.580Z,76.67
2024-01-30T04:43:17.421Z,75.67
2024-01-30T04:43:49.236Z,76.00
2024-01-30T04:44:21.023Z,76.67
2024-01-30T04:44:52.821Z,77.00
2024-01-30T04:45:24.592Z,77.33
2024-01-30T04:45:56.367Z,78.00
2024-01-30T04:46:28.156Z,78.00
2024-01-30T04:47:02.611Z,78.67
2024-01-30T04:47:34.488Z,79.00
2024-01-30T04:48:06.578Z,79.33
2024-01-30T04:48:38.405Z,80.00
2024-01-30T04:49:10.413Z,80.00
2024-01-30T04:49:42.343Z,80.00
2024-01-30T04:50:14.675Z,80.00
2024-01-30T04:50:46.471Z,80.00
2024-01-30T04:51:18.250Z,81.00
2024-01-30T04:51:50.069Z,81.33
2024-01-30T04:52:22.292Z,82.67
2024-01-30T04:52:54.099Z,83.67
2024-01-30T04:53:25.904Z,84.00
2024-01-30T04:53:57.662Z,83.67
2024-01-30T04:54:29.532Z,83.00
2024-01-30T04:55:01.291Z,109.00
2024-01-30T04:55:33.148Z,175.33
2024-01-30T04:56:06.034Z,182.67
2024-01-30T04:56:37.805Z,168.33
2024-01-30T04:57:10.867Z,159.33
2024-01-30T04:57:42.677Z,142.33
2024-01-30T04:58:14.551Z,129.33
2024-01-30T04:58:46.361Z,123.33
2024-01-30T04:59:18.137Z,121.67
2024-01-30T04:59:50.184Z,120.67
2024-01-30T05:00:22.033Z,119.00
2024-01-30T05:00:53.883Z,116.00
2024-01-30T05:01:25.810Z,111.67
2024-01-30T05:01:57.881Z,113.67
2024-01-30T05:02:29.715Z,170.67
2024-01-30T05:03:01.465Z,231.33
2024-01-30T05:03:37.245Z,260.67
2024-01-30T05:04:10.441Z,281.00
2024-01-30T05:04:43.454Z,286.00
2024-01-30T05:05:15.315Z,250.33
2024-01-30T05:05:47.194Z,269.00
2024-01-30T05:06:28.109Z,278.00
2024-01-30T05:07:00.002Z,252.67
2024-01-30T05:07:32.045Z,248.00
2024-01-30T05:08:03.890Z,218.00
2024-01-30T05:08:37.835Z,212.00
2024-01-30T05:09:10.509Z,196.00
2024-01-30T05:09:42.280Z,159.67
2024-01-30T05:10:14.237Z,138.67
2024-01-30T05:10:46.077Z,126.67
2024-01-30T05:11:17.927Z,117.67
2024-01-30T05:11:49.675Z,113.67
2024-01-30T05:12:24.178Z,110.67
2024-01-30T05:12:55.996Z,106.00
2024-01-30T05:13:27.857Z,99.33
2024-01-30T05:13:59.686Z,96.67
2024-01-30T05:14:31.437Z,97.00
2024-01-30T05:15:03.215Z,97.33
2024-01-30T05:15:34.993Z,94.00
2024-01-30T05:16:06.922Z,92.67
2024-01-30T05:16:38.820Z,92.67
2024-01-30T05:17:11.491Z,92.67
2024-01-30T05:17:43.312Z,90.33
2024-01-30T05:18:15.330Z,90.33
2024-01-30T05:18:47.225Z,89.67
2024-01-30T05:19:19.299Z,87.67
2024-01-30T05:19:51.263Z,89.00
2024-01-30T05:20:23.185Z,88.33
2024-01-30T05:20:55.063Z,91.00
2024-01-30T05:21:26.909Z,127.67
2024-01-30T05:21:58.743Z,198.00
2024-01-30T05:22:30.558Z,232.33
2024-01-30T05:23:02.350Z,248.00
2024-01-30T05:23:34.119Z,273.67
2024-01-30T05:24:06.015Z,255.33
2024-01-30T05:24:38.274Z,248.00
2024-01-30T05:25:10.082Z,254.33
2024-01-30T05:25:41.968Z,292.00
2024-01-30T05:26:13.755Z,297.33
2024-01-30T05:26:45.637Z,266.67
2024-01-30T05:27:17.388Z,206.67
2024-01-30T05:27:49.194Z,164.67
2024-01-30T05:28:21.177Z,134.33
2024-01-30T05:28:53.087Z,125.00
2024-01-30T05:29:25.723Z,120.33
2024-01-30T05:29:57.488Z,117.33
2024-01-30T05:30:29.386Z,114.67
2024-01-30T05:31:01.220Z,112.00
2024-01-30T05:31:33.128Z,109.67
2024-01-30T05:32:06.762Z,111.33
2024-01-30T05:32:38.683Z,112.00
2024-01-30T05:33:11.286Z,112.00
2024-01-30T05:33:43.568Z,114.33
2024-01-30T05:34:15.950Z,116.00
2024-01-30T05:34:48.034Z,116.33
2024-01-30T05:35:22.351Z,117.67
2024-01-30T05:35:55.950Z,118.67
2024-01-30T05:36:28.015Z,115.00
2024-01-30T05:37:00.270Z,108.33
2024-01-30T05:37:32.576Z,104.33
2024-01-30T05:38:06.370Z,102.33
2024-01-30T05:38:38.122Z,103.33
2024-01-30T05:39:10.426Z,106.33
2024-01-30T05:39:44.771Z,108.00
2024-01-30T05:40:16.676Z,107.33
2024-01-30T05:40:49.992Z,111.33
2024-01-30T05:41:22.447Z,114.33
2024-01-30T05:41:54.216Z,115.67
2024-01-30T05:42:26.482Z,117.67
2024-01-30T05:43:02.202Z,123.67
2024-01-30T05:43:34.054Z,164.00
2024-01-30T05:44:06.166Z,179.33
2024-01-30T05:44:38.198Z,214.33
2024-01-30T05:45:10.556Z,212.33
2024-01-30T05:45:42.501Z,181.67
2024-01-30T05:46:14.426Z,165.00
2024-01-30T05:46:46.199Z,160.33
2024-01-30T05:47:18.545Z,158.67
2024-01-30T05:47:50.344Z,156.67
2024-01-30T05:48:22.580Z,155.00
2024-01-30T05:48:54.591Z,152.33
2024-01-30T05:49:26.509Z,151.00
2024-01-30T05:49:58.489Z,149.67
2024-01-30T05:50:30.398Z,148.00
2024-01-30T05:51:02.525Z,148.67
2024-01-30T05:51:34.404Z,149.00
2024-01-30T05:52:06.517Z,149.00
2024-01-30T05:52:38.526Z,147.67
2024-01-30T05:53:10.401Z,146.33
2024-01-30T05:53:42.205Z,144.67
2024-01-30T05:54:16.897Z,138.33
2024-01-30T05:54:49.673Z,130.00
2024-01-30T05:55:21.665Z,124.33
2024-01-30T05:55:53.589Z,126.00
2024-01-30T05:56:25.359Z,127.67
2024-01-30T05:56:57.143Z,126.67
2024-01-30T05:57:28.909Z,124.33
2024-01-30T05:58:01.060Z,121.33
2024-01-30T05:58:32.882Z,120.00
2024-01-30T05:59:04.891Z,119.00
2024-01-30T05:59:40.756Z,119.00
2024-01-30T06:00:14.152Z,118.33
2024-01-30T06:00:46.058Z,117.67
2024-01-30T06:01:18.066Z,117.33
2024-01-30T06:01:50.225Z,117.33
2024-01-30T06:02:22.089Z,119.33
2024-01-30T06:02:53.852Z,120.33
2024-01-30T06:03:25.915Z,123.67
2024-01-30T06:03:57.783Z,126.67
2024-01-30T06:04:29.689Z,128.67
2024-01-30T06:05:01.618Z,130.67
2024-01-30T06:05:33.490Z,131.00
2024-01-30T06:06:05.372Z,129.67
2024-01-30T06:06:37.150Z,128.67
2024-01-30T06:07:09.425Z,128.00
2024-01-30T06:07:41.366Z,128.33
2024-01-30T06:08:13.326Z,175.67
2024-01-30T06:08:46.668Z,205.67
2024-01-30T06:09:18.475Z,172.00
2024-01-30T06:09:50.252Z,155.33
2024-01-30T06:10:22.119Z,152.00
2024-01-30T06:10:53.952Z,148.00
2024-01-30T06:11:25.770Z,145.33
2024-01-30T06:11:57.547Z,142.00
2024-01-30T06:12:29.463Z,133.67
2024-01-30T06:13:01.296Z,125.33
2024-01-30T06:13:33.262Z,120.33
2024-01-30T06:14:05.063Z,119.00
2024-01-30T06:14:37.190Z,120.33
2024-01-30T06:15:09.210Z,121.67
2024-01-30T06:15:41.029Z,122.67
2024-01-30T06:16:13.269Z,123.33
2024-01-30T06:16:45.179Z,124.33
2024-01-30T06:17:16.944Z,125.67
2024-01-30T06:17:48.729Z,126.33
2024-01-30T06:18:21.928Z,127.00
2024-01-30T06:18:53.757Z,136.00
2024-01-30T06:19:25.690Z,196.00
2024-01-30T06:19:57.625Z,189.00
2024-01-30T06:20:29.726Z,185.00
2024-01-30T06:21:01.573Z,176.67
2024-01-30T06:21:35.471Z,195.33
2024-01-30T06:22:07.262Z,221.33
2024-01-30T06:22:39.101Z,224.00
2024-01-30T06:23:11.454Z,194.67
2024-01-30T06:23:43.243Z,190.67
2024-01-30T06:24:15.138Z,218.67
2024-01-30T06:24:49.261Z,225.00
2024-01-30T06:25:21.220Z,204.67
2024-01-30T06:25:54.181Z,200.67
2024-01-30T06:26:25.954Z,204.33
2024-01-30T06:26:57.752Z,197.00
2024-01-30T06:27:29.630Z,200.00
2024-01-30T06:28:01.491Z,198.00
2024-01-30T06:28:33.329Z,193.67
2024-01-30T06:29:05.482Z,192.00
2024-01-30T06:29:37.288Z,189.67
2024-01-30T06:30:09.337Z,184.67
2024-01-30T06:30:41.119Z,174.33
2024-01-30T06:31:13.196Z,164.67
2024-01-30T06:31:44.962Z,157.67
2024-01-30T06:32:16.984Z,156.00
2024-01-30T06:32:48.802Z,160.67
2024-01-30T06:33:20.646Z,161.33
2024-01-30T06:33:52.639Z,161.00
2024-01-30T06:34:24.640Z,162.33
2024-01-30T06:34:56.512Z,195.33
2024-01-30T06:35:30.246Z,239.33
2024-01-30T06:36:02.041Z,217.00
2024-01-30T06:36:33.840Z,200.33
2024-01-30T06:37:07.396Z,202.33
2024-01-30T06:37:39.403Z,198.33
2024-01-30T06:38:11.678Z,194.33
2024-01-30T06:38:43.419Z,184.33
2024-01-30T06:39:15.328Z,190.00
2024-01-30T06:39:47.125Z,196.00
2024-01-30T06:40:19.054Z,192.00
2024-01-30T06:40:50.894Z,190.33
2024-01-30T06:41:22.762Z,196.00
2024-01-30T06:41:54.564Z,199.67
2024-01-30T06:42:26.430Z,199.67
2024-01-30T06:42:58.283Z,197.33
2024-01-30T06:43:30.272Z,196.33
2024-01-30T06:44:05.307Z,194.00
2024-01-30T06:44:37.086Z,185.00